sensor_id;sensor_type;location;lat;lon;timestamp;pressure;altitude;pressure_sealevel;temperature;humidity
84677;BME280;74901;55.024;73.254;2023-12-28T00:01:40;99528.88;;;-0.40;86.41
84677;BME280;74901;55.024;73.254;2023-12-28T00:04:11;99529.97;;;-0.41;86.42
84677;BME280;74901;55.024;73.254;2023-12-28T00:06:42;99524.50;;;-0.45;86.89
84677;BME280;74901;55.024;73.254;2023-12-28T00:09:14;99534.38;;;-0.49;86.56
84677;BME280;74901;55.024;73.254;2023-12-28T00:11:44;99526.28;;;-0.49;86.73
84677;BME280;74901;55.024;73.254;2023-12-28T00:14:29;99529.78;;;-0.48;87.15
84677;BME280;74901;55.024;73.254;2023-12-28T00:16:58;99542.16;;;-0.47;86.92
84677;BME280;74901;55.024;73.254;2023-12-28T00:19:32;99546.44;;;-0.46;87.16
84677;BME280;74901;55.024;73.254;2023-12-28T00:22:01;99534.06;;;-0.47;86.50
84677;BME280;74901;55.024;73.254;2023-12-28T00:24:30;99541.38;;;-0.48;86.74
84677;BME280;74901;55.024;73.254;2023-12-28T00:26:59;99547.88;;;-0.49;86.23
84677;BME280;74901;55.024;73.254;2023-12-28T00:29:54;99561.06;;;-0.47;87.23
84677;BME280;74901;55.024;73.254;2023-12-28T00:32:23;99560.25;;;-0.48;86.08
84677;BME280;74901;55.024;73.254;2023-12-28T00:34:57;99565.34;;;-0.46;86.60
84677;BME280;74901;55.024;73.254;2023-12-28T00:37:26;99576.91;;;-0.46;86.75
84677;BME280;74901;55.024;73.254;2023-12-28T00:39:55;99561.19;;;-0.44;86.54
84677;BME280;74901;55.024;73.254;2023-12-28T00:42:26;99565.88;;;-0.41;85.99
84677;BME280;74901;55.024;73.254;2023-12-28T00:44:56;99576.34;;;-0.39;86.12
84677;BME280;74901;55.024;73.254;2023-12-28T00:47:26;99574.44;;;-0.38;86.25
84677;BME280;74901;55.024;73.254;2023-12-28T00:50:07;99566.66;;;-0.40;86.69
84677;BME280;74901;55.024;73.254;2023-12-28T00:52:37;99586.34;;;-0.39;86.37
84677;BME280;74901;55.024;73.254;2023-12-28T00:55:08;99599.16;;;-0.36;86.14
84677;BME280;74901;55.024;73.254;2023-12-28T00:57:38;99593.88;;;-0.33;85.83
84677;BME280;74901;55.024;73.254;2023-12-28T01:00:11;99584.66;;;-0.32;86.45
84677;BME280;74901;55.024;73.254;2023-12-28T01:02:41;99594.66;;;-0.32;85.37
84677;BME280;74901;55.024;73.254;2023-12-28T01:05:18;99624.03;;;-0.31;86.19
84677;BME280;74901;55.024;73.254;2023-12-28T01:07:50;99619.84;;;-0.28;86.47
84677;BME280;74901;55.024;73.254;2023-12-28T01:10:22;99611.28;;;-0.30;86.00
84677;BME280;74901;55.024;73.254;2023-12-28T01:12:54;99606.34;;;-0.28;85.91
84677;BME280;74901;55.024;73.254;2023-12-28T01:15:26;99625.72;;;-0.26;86.04
84677;BME280;74901;55.024;73.254;2023-12-28T01:17:55;99634.16;;;-0.28;85.96
84677;BME280;74901;55.024;73.254;2023-12-28T01:20:26;99620.56;;;-0.31;85.75
84677;BME280;74901;55.024;73.254;2023-12-28T01:22:55;99630.78;;;-0.37;86.24
84677;BME280;74901;55.024;73.254;2023-12-28T01:25:26;99622.59;;;-0.41;85.87
84677;BME280;74901;55.024;73.254;2023-12-28T01:28:00;99639.47;;;-0.44;86.20
84677;BME280;74901;55.024;73.254;2023-12-28T01:30:33;99635.19;;;-0.45;85.52
84677;BME280;74901;55.024;73.254;2023-12-28T01:33:02;99638.31;;;-0.43;86.47
84677;BME280;74901;55.024;73.254;2023-12-28T01:35:33;99635.63;;;-0.43;85.95
84677;BME280;74901;55.024;73.254;2023-12-28T01:38:13;99657.59;;;-0.44;85.52
84677;BME280;74901;55.024;73.254;2023-12-28T01:40:46;99659.13;;;-0.43;86.46
84677;BME280;74901;55.024;73.254;2023-12-28T01:43:15;99663.09;;;-0.41;86.22
84677;BME280;74901;55.024;73.254;2023-12-28T01:45:44;99661.28;;;-0.36;86.36
84677;BME280;74901;55.024;73.254;2023-12-28T01:48:14;99656.66;;;-0.36;85.95
84677;BME280;74901;55.024;73.254;2023-12-28T01:50:46;99668.00;;;-0.30;85.25
84677;BME280;74901;55.024;73.254;2023-12-28T01:53:15;99675.78;;;-0.29;85.64
84677;BME280;74901;55.024;73.254;2023-12-28T01:55:52;99660.59;;;-0.33;84.41
84677;BME280;74901;55.024;73.254;2023-12-28T01:58:22;99655.28;;;-0.30;84.71
84677;BME280;74901;55.024;73.254;2023-12-28T02:01:00;99673.88;;;-0.28;84.40
84677;BME280;74901;55.024;73.254;2023-12-28T02:03:32;99703.91;;;-0.30;83.81
84677;BME280;74901;55.024;73.254;2023-12-28T02:06:05;99683.22;;;-0.38;82.63
84677;BME280;74901;55.024;73.254;2023-12-28T02:08:35;99704.84;;;-0.38;82.45
84677;BME280;74901;55.024;73.254;2023-12-28T02:11:05;99692.00;;;-0.41;82.79
84677;BME280;74901;55.024;73.254;2023-12-28T02:13:38;99679.19;;;-0.44;81.09
84677;BME280;74901;55.024;73.254;2023-12-28T02:16:12;99686.38;;;-0.48;81.92
84677;BME280;74901;55.024;73.254;2023-12-28T02:18:50;99724.88;;;-0.51;81.81
84677;BME280;74901;55.024;73.254;2023-12-28T02:21:27;99704.28;;;-0.56;80.12
84677;BME280;74901;55.024;73.254;2023-12-28T02:23:57;99697.97;;;-0.60;80.23
84677;BME280;74901;55.024;73.254;2023-12-28T02:26:27;99717.53;;;-0.63;78.68
84677;BME280;74901;55.024;73.254;2023-12-28T02:28:56;99687.28;;;-0.68;78.37
84677;BME280;74901;55.024;73.254;2023-12-28T02:31:29;99700.78;;;-0.68;78.93
84677;BME280;74901;55.024;73.254;2023-12-28T02:34:06;99693.81;;;-0.69;78.89
84677;BME280;74901;55.024;73.254;2023-12-28T02:36:41;99700.78;;;-0.68;79.16
84677;BME280;74901;55.024;73.254;2023-12-28T02:39:17;99705.03;;;-0.67;78.48
84677;BME280;74901;55.024;73.254;2023-12-28T02:41:50;99709.31;;;-0.66;78.45
84677;BME280;74901;55.024;73.254;2023-12-28T02:44:23;99701.34;;;-0.63;78.57
84677;BME280;74901;55.024;73.254;2023-12-28T02:46:52;99696.06;;;-0.59;79.79
84677;BME280;74901;55.024;73.254;2023-12-28T02:49:22;99718.13;;;-0.57;79.03
84677;BME280;74901;55.024;73.254;2023-12-28T02:51:54;99703.81;;;-0.58;78.92
84677;BME280;74901;55.024;73.254;2023-12-28T02:54:28;99717.66;;;-0.59;78.58
84677;BME280;74901;55.024;73.254;2023-12-28T02:56:59;99726.06;;;-0.61;78.79
84677;BME280;74901;55.024;73.254;2023-12-28T02:59:31;99714.84;;;-0.63;79.11
84677;BME280;74901;55.024;73.254;2023-12-28T03:02:04;99717.41;;;-0.66;78.96
84677;BME280;74901;55.024;73.254;2023-12-28T03:04:33;99735.19;;;-0.65;79.57
84677;BME280;74901;55.024;73.254;2023-12-28T03:07:02;99725.19;;;-0.65;78.92
84677;BME280;74901;55.024;73.254;2023-12-28T03:09:31;99727.44;;;-0.67;78.33
84677;BME280;74901;55.024;73.254;2023-12-28T03:12:05;99738.69;;;-0.65;78.80
84677;BME280;74901;55.024;73.254;2023-12-28T03:14:39;99718.22;;;-0.66;78.58
84677;BME280;74901;55.024;73.254;2023-12-28T03:17:11;99718.44;;;-0.71;78.53
84677;BME280;74901;55.024;73.254;2023-12-28T03:19:41;99751.03;;;-0.76;78.61
84677;BME280;74901;55.024;73.254;2023-12-28T03:22:12;99738.09;;;-0.83;79.24
84677;BME280;74901;55.024;73.254;2023-12-28T03:24:42;99749.22;;;-0.84;78.19
84677;BME280;74901;55.024;73.254;2023-12-28T03:27:15;99757.66;;;-0.86;78.14
84677;BME280;74901;55.024;73.254;2023-12-28T03:29:44;99754.50;;;-0.88;78.00
84677;BME280;74901;55.024;73.254;2023-12-28T03:32:14;99756.75;;;-0.90;78.49
84677;BME280;74901;55.024;73.254;2023-12-28T03:34:43;99744.91;;;-0.97;79.02
84677;BME280;74901;55.024;73.254;2023-12-28T03:37:12;99759.34;;;-0.93;79.02
84677;BME280;74901;55.024;73.254;2023-12-28T03:39:41;99765.06;;;-0.95;78.08
84677;BME280;74901;55.024;73.254;2023-12-28T03:42:17;99769.09;;;-1.01;79.07
84677;BME280;74901;55.024;73.254;2023-12-28T03:44:52;99788.84;;;-1.09;78.30
84677;BME280;74901;55.024;73.254;2023-12-28T03:47:22;99766.78;;;-1.11;79.01
84677;BME280;74901;55.024;73.254;2023-12-28T03:49:54;99749.72;;;-1.15;78.88
84677;BME280;74901;55.024;73.254;2023-12-28T03:52:29;99772.06;;;-1.14;79.29
84677;BME280;74901;55.024;73.254;2023-12-28T03:55:02;99785.25;;;-1.13;79.28
84677;BME280;74901;55.024;73.254;2023-12-28T03:57:32;99787.25;;;-1.10;78.95
84677;BME280;74901;55.024;73.254;2023-12-28T04:00:01;99776.94;;;-1.08;78.15
84677;BME280;74901;55.024;73.254;2023-12-28T04:02:41;99780.75;;;-1.09;78.16
84677;BME280;74901;55.024;73.254;2023-12-28T04:05:11;99790.50;;;-1.16;78.18
84677;BME280;74901;55.024;73.254;2023-12-28T04:07:39;99794.88;;;-1.24;78.92
84677;BME280;74901;55.024;73.254;2023-12-28T04:10:13;99790.78;;;-1.30;78.25
84677;BME280;74901;55.024;73.254;2023-12-28T04:12:47;99768.59;;;-1.36;79.06
84677;BME280;74901;55.024;73.254;2023-12-28T04:15:16;99803.53;;;-1.39;78.56
84677;BME280;74901;55.024;73.254;2023-12-28T04:17:45;99795.06;;;-1.50;79.27
84677;BME280;74901;55.024;73.254;2023-12-28T04:20:14;99806.38;;;-1.56;78.82
84677;BME280;74901;55.024;73.254;2023-12-28T04:22:46;99818.16;;;-1.61;79.91
84677;BME280;74901;55.024;73.254;2023-12-28T04:25:15;99840.22;;;-1.68;79.83
84677;BME280;74901;55.024;73.254;2023-12-28T04:27:49;99834.25;;;-1.73;79.56
84677;BME280;74901;55.024;73.254;2023-12-28T04:30:21;99825.09;;;-1.81;80.36
84677;BME280;74901;55.024;73.254;2023-12-28T04:32:51;99805.28;;;-1.85;79.73
84677;BME280;74901;55.024;73.254;2023-12-28T04:35:25;99816.72;;;-1.88;80.28
84677;BME280;74901;55.024;73.254;2023-12-28T04:37:54;99843.66;;;-1.88;79.71
84677;BME280;74901;55.024;73.254;2023-12-28T04:40:26;99839.38;;;-1.89;79.96
84677;BME280;74901;55.024;73.254;2023-12-28T04:42:57;99840.59;;;-1.78;79.80
84677;BME280;74901;55.024;73.254;2023-12-28T04:45:26;99832.41;;;-1.60;79.26
84677;BME280;74901;55.024;73.254;2023-12-28T04:47:59;99836.28;;;-1.49;79.44
84677;BME280;74901;55.024;73.254;2023-12-28T04:50:29;99839.25;;;-1.42;79.67
84677;BME280;74901;55.024;73.254;2023-12-28T04:52:59;99838.38;;;-1.34;79.76
84677;BME280;74901;55.024;73.254;2023-12-28T04:55:28;99840.34;;;-1.23;79.00
84677;BME280;74901;55.024;73.254;2023-12-28T04:58:02;99832.53;;;-1.15;79.52
84677;BME280;74901;55.024;73.254;2023-12-28T05:00:34;99832.00;;;-1.09;79.27
84677;BME280;74901;55.024;73.254;2023-12-28T05:03:23;99830.47;;;-0.98;78.60
84677;BME280;74901;55.024;73.254;2023-12-28T05:05:52;99827.81;;;-0.86;79.64
84677;BME280;74901;55.024;73.254;2023-12-28T05:08:21;99835.25;;;-0.83;79.42
84677;BME280;74901;55.024;73.254;2023-12-28T05:10:50;99837.94;;;-0.83;78.43
84677;BME280;74901;55.024;73.254;2023-12-28T05:13:23;99843.81;;;-0.80;79.56
84677;BME280;74901;55.024;73.254;2023-12-28T05:15:53;99838.38;;;-0.93;78.74
84677;BME280;74901;55.024;73.254;2023-12-28T05:18:25;99848.47;;;-0.90;79.50
84677;BME280;74901;55.024;73.254;2023-12-28T05:20:54;99842.56;;;-0.83;78.92
84677;BME280;74901;55.024;73.254;2023-12-28T05:23:24;99849.22;;;-0.80;80.04
84677;BME280;74901;55.024;73.254;2023-12-28T05:25:56;99856.69;;;-0.86;79.57
84677;BME280;74901;55.024;73.254;2023-12-28T05:28:27;99863.88;;;-0.90;79.76
84677;BME280;74901;55.024;73.254;2023-12-28T05:30:58;99860.13;;;-0.98;79.65
84677;BME280;74901;55.024;73.254;2023-12-28T05:33:30;99862.22;;;-0.83;80.48
84677;BME280;74901;55.024;73.254;2023-12-28T05:35:59;99861.16;;;-0.69;79.01
84677;BME280;74901;55.024;73.254;2023-12-28T05:38:28;99860.63;;;-0.63;79.55
84677;BME280;74901;55.024;73.254;2023-12-28T05:40:56;99864.47;;;-0.52;78.82
84677;BME280;74901;55.024;73.254;2023-12-28T05:43:27;99866.16;;;-0.47;78.84
84677;BME280;74901;55.024;73.254;2023-12-28T05:45:58;99869.75;;;-0.43;78.68
84677;BME280;74901;55.024;73.254;2023-12-28T05:48:30;99858.94;;;-0.43;78.81
84677;BME280;74901;55.024;73.254;2023-12-28T05:51:01;99862.13;;;-0.41;79.13
84677;BME280;74901;55.024;73.254;2023-12-28T05:53:30;99858.75;;;-0.38;79.10
84677;BME280;74901;55.024;73.254;2023-12-28T05:56:01;99864.59;;;-0.36;79.60
84677;BME280;74901;55.024;73.254;2023-12-28T05:58:33;99873.50;;;-0.35;79.76
84677;BME280;74901;55.024;73.254;2023-12-28T06:01:02;99873.72;;;-0.41;80.07
84677;BME280;74901;55.024;73.254;2023-12-28T06:03:31;99866.28;;;-0.44;79.66
84677;BME280;74901;55.024;73.254;2023-12-28T06:06:07;99858.19;;;-0.44;79.55
84677;BME280;74901;55.024;73.254;2023-12-28T06:08:42;99854.22;;;-0.58;79.99
84677;BME280;74901;55.024;73.254;2023-12-28T06:11:11;99879.31;;;-0.46;80.45
84677;BME280;74901;55.024;73.254;2023-12-28T06:13:43;99883.06;;;-0.38;80.67
84677;BME280;74901;55.024;73.254;2023-12-28T06:16:15;99875.84;;;-0.34;80.55
84677;BME280;74901;55.024;73.254;2023-12-28T06:18:45;99879.47;;;-0.30;80.20
84677;BME280;74901;55.024;73.254;2023-12-28T06:21:17;99872.72;;;-0.24;80.71
84677;BME280;74901;55.024;73.254;2023-12-28T06:23:46;99869.94;;;-0.15;79.83
84677;BME280;74901;55.024;73.254;2023-12-28T06:26:19;99870.41;;;-0.01;79.64
84677;BME280;74901;55.024;73.254;2023-12-28T06:28:50;99863.63;;;0.17;79.28
84677;BME280;74901;55.024;73.254;2023-12-28T06:31:28;99859.09;;;0.46;79.34
84677;BME280;74901;55.024;73.254;2023-12-28T06:33:57;99858.03;;;0.62;78.47
84677;BME280;74901;55.024;73.254;2023-12-28T06:36:28;99863.28;;;0.43;77.98
84677;BME280;74901;55.024;73.254;2023-12-28T06:39:00;99864.19;;;0.35;79.41
84677;BME280;74901;55.024;73.254;2023-12-28T06:41:30;99869.03;;;0.29;79.90
84677;BME280;74901;55.024;73.254;2023-12-28T06:44:01;99870.41;;;0.23;79.46
84677;BME280;74901;55.024;73.254;2023-12-28T06:46:30;99869.47;;;0.07;80.00
84677;BME280;74901;55.024;73.254;2023-12-28T06:48:59;99865.78;;;-0.13;80.05
84677;BME280;74901;55.024;73.254;2023-12-28T06:51:28;99877.25;;;-0.04;80.87
84677;BME280;74901;55.024;73.254;2023-12-28T06:54:00;99890.78;;;0.09;79.96
84677;BME280;74901;55.024;73.254;2023-12-28T06:56:31;99882.66;;;-0.04;80.86
84677;BME280;74901;55.024;73.254;2023-12-28T06:59:02;99890.53;;;-0.11;80.61
84677;BME280;74901;55.024;73.254;2023-12-28T07:01:31;99894.00;;;-0.10;80.67
84677;BME280;74901;55.024;73.254;2023-12-28T07:04:05;99918.13;;;0.07;80.20
84677;BME280;74901;55.024;73.254;2023-12-28T07:06:34;99882.88;;;0.28;79.76
84677;BME280;74901;55.024;73.254;2023-12-28T07:09:03;99923.44;;;0.28;79.52
84677;BME280;74901;55.024;73.254;2023-12-28T07:11:33;99916.56;;;0.18;79.36
84677;BME280;74901;55.024;73.254;2023-12-28T07:14:02;99919.94;;;0.15;79.74
84677;BME280;74901;55.024;73.254;2023-12-28T07:16:31;99924.09;;;0.25;80.30
84677;BME280;74901;55.024;73.254;2023-12-28T07:19:00;99927.59;;;0.37;79.06
84677;BME280;74901;55.024;73.254;2023-12-28T07:21:31;99949.47;;;0.45;79.06
84677;BME280;74901;55.024;73.254;2023-12-28T07:24:01;99932.25;;;0.37;78.70
84677;BME280;74901;55.024;73.254;2023-12-28T07:26:38;99941.91;;;0.50;78.53
84677;BME280;74901;55.024;73.254;2023-12-28T07:29:11;99943.81;;;0.62;79.02
84677;BME280;74901;55.024;73.254;2023-12-28T07:31:42;99937.97;;;0.72;78.41
84677;BME280;74901;55.024;73.254;2023-12-28T07:34:12;99919.59;;;0.65;77.83
84677;BME280;74901;55.024;73.254;2023-12-28T07:36:44;99925.69;;;0.50;78.37
84677;BME280;74901;55.024;73.254;2023-12-28T07:39:16;99925.25;;;0.36;78.76
84677;BME280;74901;55.024;73.254;2023-12-28T07:41:45;99915.00;;;0.29;77.85
84677;BME280;74901;55.024;73.254;2023-12-28T07:44:18;99941.56;;;0.15;78.08
84677;BME280;74901;55.024;73.254;2023-12-28T07:46:47;99941.78;;;0.10;78.82
84677;BME280;74901;55.024;73.254;2023-12-28T07:49:16;99959.59;;;0.11;78.93
84677;BME280;74901;55.024;73.254;2023-12-28T07:51:45;99955.41;;;0.26;78.26
84677;BME280;74901;55.024;73.254;2023-12-28T07:54:17;99948.00;;;0.23;77.74
84677;BME280;74901;55.024;73.254;2023-12-28T07:56:52;99953.81;;;0.13;78.25
84677;BME280;74901;55.024;73.254;2023-12-28T07:59:23;99950.34;;;0.00;77.93
84677;BME280;74901;55.024;73.254;2023-12-28T08:01:53;99942.22;;;0.00;77.12
84677;BME280;74901;55.024;73.254;2023-12-28T08:04:23;99949.97;;;0.02;77.32
84677;BME280;74901;55.024;73.254;2023-12-28T08:06:52;99954.41;;;0.18;76.74
84677;BME280;74901;55.024;73.254;2023-12-28T08:09:20;99952.63;;;0.47;75.61
84677;BME280;74901;55.024;73.254;2023-12-28T08:11:50;99960.28;;;0.57;75.72
84677;BME280;74901;55.024;73.254;2023-12-28T08:14:19;99957.13;;;0.55;74.39
84677;BME280;74901;55.024;73.254;2023-12-28T08:16:52;99970.31;;;0.56;75.32
84677;BME280;74901;55.024;73.254;2023-12-28T08:23:14;99984.75;;;0.48;73.22
84677;BME280;74901;55.024;73.254;2023-12-28T08:25:43;99972.56;;;0.54;72.80
84677;BME280;74901;55.024;73.254;2023-12-28T08:28:13;99982.03;;;0.48;71.77
84677;BME280;74901;55.024;73.254;2023-12-28T08:30:42;99989.78;;;0.50;72.49
84677;BME280;74901;55.024;73.254;2023-12-28T08:33:12;99999.63;;;0.54;72.85
84677;BME280;74901;55.024;73.254;2023-12-28T08:35:41;99997.25;;;0.40;72.15
84677;BME280;74901;55.024;73.254;2023-12-28T08:38:10;99998.91;;;0.21;72.26
84677;BME280;74901;55.024;73.254;2023-12-28T08:40:39;100003.63;;;0.12;72.31
84677;BME280;74901;55.024;73.254;2023-12-28T08:43:08;99997.19;;;0.04;72.41
84677;BME280;74901;55.024;73.254;2023-12-28T08:45:38;99997.66;;;0.06;72.63
84677;BME280;74901;55.024;73.254;2023-12-28T08:48:15;99995.72;;;0.19;72.65
84677;BME280;74901;55.024;73.254;2023-12-28T08:50:47;99987.19;;;0.29;71.77
84677;BME280;74901;55.024;73.254;2023-12-28T08:53:19;99982.91;;;0.28;71.17
84677;BME280;74901;55.024;73.254;2023-12-28T08:55:48;99992.94;;;0.39;71.72
84677;BME280;74901;55.024;73.254;2023-12-28T08:58:17;99996.13;;;0.42;70.86
84677;BME280;74901;55.024;73.254;2023-12-28T09:00:50;99996.34;;;0.36;71.08
84677;BME280;74901;55.024;73.254;2023-12-28T09:03:23;99991.03;;;0.28;71.57
84677;BME280;74901;55.024;73.254;2023-12-28T09:05:52;99998.31;;;0.15;72.15
84677;BME280;74901;55.024;73.254;2023-12-28T09:08:21;99990.97;;;0.04;71.87
84677;BME280;74901;55.024;73.254;2023-12-28T09:10:50;100007.75;;;-0.03;72.27
84677;BME280;74901;55.024;73.254;2023-12-28T09:13:20;100005.16;;;0.00;71.55
84677;BME280;74901;55.024;73.254;2023-12-28T09:15:49;100002.69;;;0.08;71.70
84677;BME280;74901;55.024;73.254;2023-12-28T09:18:17;100012.06;;;0.10;72.50
84677;BME280;74901;55.024;73.254;2023-12-28T09:20:49;100018.03;;;0.16;72.45
84677;BME280;74901;55.024;73.254;2023-12-28T09:23:25;100001.59;;;0.21;71.92
84677;BME280;74901;55.024;73.254;2023-12-28T09:25:57;99999.69;;;0.21;71.43
84677;BME280;74901;55.024;73.254;2023-12-28T09:28:26;100004.09;;;0.26;71.76
84677;BME280;74901;55.024;73.254;2023-12-28T09:30:55;100003.66;;;0.24;72.43
84677;BME280;74901;55.024;73.254;2023-12-28T09:33:24;99980.66;;;0.18;71.85
84677;BME280;74901;55.024;73.254;2023-12-28T09:35:55;100023.66;;;0.11;71.84
84677;BME280;74901;55.024;73.254;2023-12-28T09:38:24;100009.78;;;0.00;72.82
84677;BME280;74901;55.024;73.254;2023-12-28T09:40:54;100029.34;;;-0.03;72.75
84677;BME280;74901;55.024;73.254;2023-12-28T09:43:30;100027.19;;;-0.10;73.18
84677;BME280;74901;55.024;73.254;2023-12-28T09:46:07;100043.03;;;-0.20;72.98
84677;BME280;74901;55.024;73.254;2023-12-28T09:48:39;100032.19;;;-0.32;72.72
84677;BME280;74901;55.024;73.254;2023-12-28T09:51:10;100031.06;;;-0.31;72.99
84677;BME280;74901;55.024;73.254;2023-12-28T09:53:40;100041.41;;;-0.33;73.36
84677;BME280;74901;55.024;73.254;2023-12-28T09:56:09;100042.97;;;-0.32;72.39
84677;BME280;74901;55.024;73.254;2023-12-28T09:58:45;100035.84;;;-0.37;73.54
84677;BME280;74901;55.024;73.254;2023-12-28T10:01:18;100039.44;;;-0.45;73.00
84677;BME280;74901;55.024;73.254;2023-12-28T10:03:48;100034.22;;;-0.50;72.84
84677;BME280;74901;55.024;73.254;2023-12-28T10:06:19;100021.66;;;-0.46;73.21
84677;BME280;74901;55.024;73.254;2023-12-28T10:08:48;100017.50;;;-0.44;73.16
84677;BME280;74901;55.024;73.254;2023-12-28T10:11:18;100023.34;;;-0.42;73.49
84677;BME280;74901;55.024;73.254;2023-12-28T10:13:50;100022.75;;;-0.47;72.94
84677;BME280;74901;55.024;73.254;2023-12-28T10:16:22;100034.88;;;-0.53;73.00
84677;BME280;74901;55.024;73.254;2023-12-28T10:18:55;100017.56;;;-0.52;73.97
84677;BME280;74901;55.024;73.254;2023-12-28T10:21:27;100013.97;;;-0.56;73.84
84677;BME280;74901;55.024;73.254;2023-12-28T10:23:56;100026.00;;;-0.54;73.79
84677;BME280;74901;55.024;73.254;2023-12-28T10:26:27;100019.28;;;-0.48;74.07
84677;BME280;74901;55.024;73.254;2023-12-28T10:29:00;100010.97;;;-0.43;73.36
84677;BME280;74901;55.024;73.254;2023-12-28T10:31:30;100014.94;;;-0.40;73.38
84677;BME280;74901;55.024;73.254;2023-12-28T10:33:59;100010.16;;;-0.43;72.89
84677;BME280;74901;55.024;73.254;2023-12-28T10:36:31;100012.44;;;-0.45;73.54
84677;BME280;74901;55.024;73.254;2023-12-28T10:39:05;100001.75;;;-0.42;73.93
84677;BME280;74901;55.024;73.254;2023-12-28T10:41:54;100013.72;;;-0.30;73.06
84677;BME280;74901;55.024;73.254;2023-12-28T10:44:29;100012.47;;;-0.33;73.66
84677;BME280;74901;55.024;73.254;2023-12-28T10:47:02;100019.13;;;-0.30;73.13
84677;BME280;74901;55.024;73.254;2023-12-28T10:49:37;100019.31;;;-0.35;73.39
84677;BME280;74901;55.024;73.254;2023-12-28T10:52:12;100017.50;;;-0.44;74.35
84677;BME280;74901;55.024;73.254;2023-12-28T10:54:51;100018.03;;;-0.50;74.17
84677;BME280;74901;55.024;73.254;2023-12-28T10:57:30;100011.09;;;-0.60;74.47
84677;BME280;74901;55.024;73.254;2023-12-28T11:00:13;100022.31;;;-0.70;74.60
84677;BME280;74901;55.024;73.254;2023-12-28T11:02:51;100017.97;;;-0.83;75.44
84677;BME280;74901;55.024;73.254;2023-12-28T11:05:25;100018.06;;;-1.00;75.58
84677;BME280;74901;55.024;73.254;2023-12-28T11:07:58;100021.00;;;-1.14;76.06
84677;BME280;74901;55.024;73.254;2023-12-28T11:10:30;100021.38;;;-1.24;75.80
84677;BME280;74901;55.024;73.254;2023-12-28T11:13:04;100027.78;;;-1.37;76.77
84677;BME280;74901;55.024;73.254;2023-12-28T11:15:39;100030.81;;;-1.47;76.55
84677;BME280;74901;55.024;73.254;2023-12-28T11:18:28;100023.59;;;-1.55;76.33
84677;BME280;74901;55.024;73.254;2023-12-28T11:21:00;100036.78;;;-1.63;77.60
84677;BME280;74901;55.024;73.254;2023-12-28T11:23:34;100035.19;;;-1.72;77.09
84677;BME280;74901;55.024;73.254;2023-12-28T11:26:04;100031.25;;;-1.75;77.17
84677;BME280;74901;55.024;73.254;2023-12-28T11:28:34;100027.28;;;-1.77;78.11
84677;BME280;74901;55.024;73.254;2023-12-28T11:31:03;100025.09;;;-1.84;77.83
84677;BME280;74901;55.024;73.254;2023-12-28T11:33:46;100031.75;;;-1.90;77.41
84677;BME280;74901;55.024;73.254;2023-12-28T11:36:36;100018.78;;;-1.96;78.21
84677;BME280;74901;55.024;73.254;2023-12-28T11:39:10;100023.56;;;-2.02;78.21
84677;BME280;74901;55.024;73.254;2023-12-28T11:41:59;100019.13;;;-2.07;78.02
84677;BME280;74901;55.024;73.254;2023-12-28T11:44:31;100015.03;;;-2.13;78.71
84677;BME280;74901;55.024;73.254;2023-12-28T11:47:11;100008.72;;;-2.17;78.79
84677;BME280;74901;55.024;73.254;2023-12-28T11:49:45;100009.97;;;-2.23;78.80
84677;BME280;74901;55.024;73.254;2023-12-28T11:52:29;100009.34;;;-2.28;78.61
84677;BME280;74901;55.024;73.254;2023-12-28T11:55:01;99988.13;;;-2.38;78.74
84677;BME280;74901;55.024;73.254;2023-12-28T11:57:30;100000.00;;;-2.39;79.19
84677;BME280;74901;55.024;73.254;2023-12-28T12:00:10;99985.13;;;-2.46;78.90
84677;BME280;74901;55.024;73.254;2023-12-28T12:02:50;99972.94;;;-2.52;79.02
84677;BME280;74901;55.024;73.254;2023-12-28T12:05:22;99973.13;;;-2.57;78.93
84677;BME280;74901;55.024;73.254;2023-12-28T12:07:52;99956.34;;;-2.62;79.81
84677;BME280;74901;55.024;73.254;2023-12-28T12:10:25;99948.28;;;-2.62;79.48
84677;BME280;74901;55.024;73.254;2023-12-28T12:12:54;99941.16;;;-2.67;79.54
84677;BME280;74901;55.024;73.254;2023-12-28T12:15:32;99935.78;;;-2.67;80.07
84677;BME280;74901;55.024;73.254;2023-12-28T12:18:01;99936.09;;;-2.68;79.47
84677;BME280;74901;55.024;73.254;2023-12-28T12:20:31;99939.88;;;-2.69;79.69
84677;BME280;74901;55.024;73.254;2023-12-28T12:23:01;99935.94;;;-2.72;79.43
84677;BME280;74901;55.024;73.254;2023-12-28T12:25:36;99924.84;;;-2.70;79.91
84677;BME280;74901;55.024;73.254;2023-12-28T12:28:06;99921.84;;;-2.69;79.93
84677;BME280;74901;55.024;73.254;2023-12-28T12:30:39;99911.41;;;-2.70;79.96
84677;BME280;74901;55.024;73.254;2023-12-28T12:33:09;99895.25;;;-2.70;79.93
84677;BME280;74901;55.024;73.254;2023-12-28T12:35:40;99905.84;;;-2.65;79.54
84677;BME280;74901;55.024;73.254;2023-12-28T12:38:09;99884.00;;;-2.64;80.11
84677;BME280;74901;55.024;73.254;2023-12-28T12:40:40;99890.34;;;-2.60;79.24
84677;BME280;74901;55.024;73.254;2023-12-28T12:43:09;99900.78;;;-2.58;79.75
84677;BME280;74901;55.024;73.254;2023-12-28T12:45:39;99900.31;;;-2.60;79.52
84677;BME280;74901;55.024;73.254;2023-12-28T12:48:12;99903.63;;;-2.63;80.10
84677;BME280;74901;55.024;73.254;2023-12-28T12:50:45;99880.88;;;-2.66;79.81
84677;BME280;74901;55.024;73.254;2023-12-28T12:53:15;99881.94;;;-2.58;80.31
84677;BME280;74901;55.024;73.254;2023-12-28T12:55:48;99886.53;;;-2.50;79.52
84677;BME280;74901;55.024;73.254;2023-12-28T12:58:22;99889.34;;;-2.38;79.00
84677;BME280;74901;55.024;73.254;2023-12-28T13:00:53;99892.00;;;-2.29;79.21
84677;BME280;74901;55.024;73.254;2023-12-28T13:03:30;99883.28;;;-2.26;79.25
84677;BME280;74901;55.024;73.254;2023-12-28T13:06:00;99884.22;;;-2.22;79.76
84677;BME280;74901;55.024;73.254;2023-12-28T13:08:53;99885.28;;;-2.15;78.91
84677;BME280;74901;55.024;73.254;2023-12-28T13:11:24;99894.97;;;-2.14;79.73
84677;BME280;74901;55.024;73.254;2023-12-28T13:13:54;99896.53;;;-2.13;79.43
84677;BME280;74901;55.024;73.254;2023-12-28T13:16:31;99887.66;;;-2.13;79.94
84677;BME280;74901;55.024;73.254;2023-12-28T13:19:01;99885.44;;;-2.11;79.87